sensor_id;sensor_type;location;lat;lon;timestamp;temperature;humidity
8888;DHT22;4480;52.370;9.748;2022-12-29T00:01:23;9.10;99.90
8888;DHT22;4480;52.370;9.748;2022-12-29T00:03:49;9.10;99.90
8888;DHT22;4480;52.370;9.748;2022-12-29T00:06:16;9.20;99.90
8888;DHT22;4480;52.370;9.748;2022-12-29T00:08:43;9.20;99.90
8888;DHT22;4480;52.370;9.748;2022-12-29T00:11:12;9.20;99.90
8888;DHT22;4480;52.370;9.748;2022-12-29T00:13:41;9.30;99.90
8888;DHT22;4480;52.370;9.748;2022-12-29T00:16:26;9.30;99.90
8888;DHT22;4480;52.370;9.748;2022-12-29T00:18:53;9.40;99.90
8888;DHT22;4480;52.370;9.748;2022-12-29T00:21:22;9.40;99.90
8888;DHT22;4480;52.370;9.748;2022-12-29T00:24:12;9.50;99.90
8888;DHT22;4480;52.370;9.748;2022-12-29T00:26:58;9.50;99.90
8888;DHT22;4480;52.370;9.748;2022-12-29T00:29:44;9.60;99.90
8888;DHT22;4480;52.370;9.748;2022-12-29T00:32:28;9.60;99.90
8888;DHT22;4480;52.370;9.748;2022-12-29T00:35:17;9.60;99.90
8888;DHT22;4480;52.370;9.748;2022-12-29T00:37:46;9.70;99.90
8888;DHT22;4480;52.370;9.748;2022-12-29T00:40:31;9.70;99.90
8888;DHT22;4480;52.370;9.748;2022-12-29T00:43:15;9.70;99.90
8888;DHT22;4480;52.370;9.748;2022-12-29T00:46:01;9.70;99.90
8888;DHT22;4480;52.370;9.748;2022-12-29T00:48:27;9.70;99.90
8888;DHT22;4480;52.370;9.748;2022-12-29T00:51:12;9.70;99.90
8888;DHT22;4480;52.370;9.748;2022-12-29T00:53:38;9.80;99.90
8888;DHT22;4480;52.370;9.748;2022-12-29T00:56:05;9.80;99.90
8888;DHT22;4480;52.370;9.748;2022-12-29T00:58:32;9.80;99.90
8888;DHT22;4480;52.370;9.748;2022-12-29T01:01:04;9.80;99.90
8888;DHT22;4480;52.370;9.748;2022-12-29T01:03:32;9.80;99.90
8888;DHT22;4480;52.370;9.748;2022-12-29T01:06:00;9.80;99.90
8888;DHT22;4480;52.370;9.748;2022-12-29T01:08:27;9.90;99.90
8888;DHT22;4480;52.370;9.748;2022-12-29T01:10:58;9.90;99.90
8888;DHT22;4480;52.370;9.748;2022-12-29T01:13:24;9.90;99.90
8888;DHT22;4480;52.370;9.748;2022-12-29T01:15:51;9.90;99.90
8888;DHT22;4480;52.370;9.748;2022-12-29T01:18:19;9.90;99.90
8888;DHT22;4480;52.370;9.748;2022-12-29T01:20:46;9.90;99.90
8888;DHT22;4480;52.370;9.748;2022-12-29T01:23:13;9.90;99.90
8888;DHT22;4480;52.370;9.748;2022-12-29T01:25:40;9.80;99.90
8888;DHT22;4480;52.370;9.748;2022-12-29T01:28:07;9.80;99.90
8888;DHT22;4480;52.370;9.748;2022-12-29T01:30:34;9.80;99.90
8888;DHT22;4480;52.370;9.748;2022-12-29T01:33:02;9.80;99.90
8888;DHT22;4480;52.370;9.748;2022-12-29T01:35:30;9.80;99.90
8888;DHT22;4480;52.370;9.748;2022-12-29T01:37:57;9.80;99.90
8888;DHT22;4480;52.370;9.748;2022-12-29T01:40:24;9.70;99.90
8888;DHT22;4480;52.370;9.748;2022-12-29T01:42:51;9.70;99.90
8888;DHT22;4480;52.370;9.748;2022-12-29T01:45:18;9.70;99.90
8888;DHT22;4480;52.370;9.748;2022-12-29T01:47:47;9.70;99.90
8888;DHT22;4480;52.370;9.748;2022-12-29T01:50:17;9.70;99.90
8888;DHT22;4480;52.370;9.748;2022-12-29T01:52:51;9.70;99.90
8888;DHT22;4480;52.370;9.748;2022-12-29T01:55:21;9.70;99.90
8888;DHT22;4480;52.370;9.748;2022-12-29T01:57:49;9.70;99.90
8888;DHT22;4480;52.370;9.748;2022-12-29T02:00:17;9.70;99.90
8888;DHT22;4480;52.370;9.748;2022-12-29T02:02:46;9.70;99.90
8888;DHT22;4480;52.370;9.748;2022-12-29T02:05:18;9.70;99.90
8888;DHT22;4480;52.370;9.748;2022-12-29T02:07:48;9.70;99.90
8888;DHT22;4480;52.370;9.748;2022-12-29T02:10:16;9.70;99.90
8888;DHT22;4480;52.370;9.748;2022-12-29T02:12:45;9.70;99.90
8888;DHT22;4480;52.370;9.748;2022-12-29T02:15:12;9.70;99.90
8888;DHT22;4480;52.370;9.748;2022-12-29T02:17:59;9.60;99.90
8888;DHT22;4480;52.370;9.748;2022-12-29T02:30:15;9.60;99.90
8888;DHT22;4480;52.370;9.748;2022-12-29T02:32:52;9.60;99.90
8888;DHT22;4480;52.370;9.748;2022-12-29T02:35:27;9.60;99.90
8888;DHT22;4480;52.370;9.748;2022-12-29T02:38:07;9.70;99.90
8888;DHT22;4480;52.370;9.748;2022-12-29T02:40:40;9.70;99.90
8888;DHT22;4480;52.370;9.748;2022-12-29T02:43:17;9.80;99.90
8888;DHT22;4480;52.370;9.748;2022-12-29T02:45:49;9.80;99.90
8888;DHT22;4480;52.370;9.748;2022-12-29T02:48:23;9.80;99.90
8888;DHT22;4480;52.370;9.748;2022-12-29T02:50:57;9.80;99.90
8888;DHT22;4480;52.370;9.748;2022-12-29T02:53:26;9.80;99.90
8888;DHT22;4480;52.370;9.748;2022-12-29T02:56:25;9.90;99.90
8888;DHT22;4480;52.370;9.748;2022-12-29T02:58:52;9.90;99.90
8888;DHT22;4480;52.370;9.748;2022-12-29T03:01:29;9.90;99.90
8888;DHT22;4480;52.370;9.748;2022-12-29T03:04:22;9.90;99.90
8888;DHT22;4480;52.370;9.748;2022-12-29T03:06:56;10.00;99.90
8888;DHT22;4480;52.370;9.748;2022-12-29T03:09:36;10.00;99.90
8888;DHT22;4480;52.370;9.748;2022-12-29T03:12:13;10.00;99.90
8888;DHT22;4480;52.370;9.748;2022-12-29T03:14:52;10.00;99.90
8888;DHT22;4480;52.370;9.748;2022-12-29T03:17:47;10.00;99.90
8888;DHT22;4480;52.370;9.748;2022-12-29T03:20:19;10.10;99.90
8888;DHT22;4480;52.370;9.748;2022-12-29T03:22:49;10.10;99.90
8888;DHT22;4480;52.370;9.748;2022-12-29T03:25:20;10.10;99.90
8888;DHT22;4480;52.370;9.748;2022-12-29T03:27:50;10.10;99.90
8888;DHT22;4480;52.370;9.748;2022-12-29T03:30:19;10.10;99.90
8888;DHT22;4480;52.370;9.748;2022-12-29T03:32:48;10.10;99.90
8888;DHT22;4480;52.370;9.748;2022-12-29T03:35:19;10.10;99.90
8888;DHT22;4480;52.370;9.748;2022-12-29T03:37:51;10.10;99.90
8888;DHT22;4480;52.370;9.748;2022-12-29T03:40:21;10.10;99.90
8888;DHT22;4480;52.370;9.748;2022-12-29T03:42:49;10.20;99.90
8888;DHT22;4480;52.370;9.748;2022-12-29T03:45:16;10.20;99.90
8888;DHT22;4480;52.370;9.748;2022-12-29T03:47:43;10.20;99.90
8888;DHT22;4480;52.370;9.748;2022-12-29T03:50:11;10.20;99.90
8888;DHT22;4480;52.370;9.748;2022-12-29T03:52:39;10.20;99.90
8888;DHT22;4480;52.370;9.748;2022-12-29T03:55:07;10.30;99.90
8888;DHT22;4480;52.370;9.748;2022-12-29T03:57:33;10.20;99.90
8888;DHT22;4480;52.370;9.748;2022-12-29T04:00:00;10.20;99.90
8888;DHT22;4480;52.370;9.748;2022-12-29T04:02:27;10.30;99.90
8888;DHT22;4480;52.370;9.748;2022-12-29T04:04:54;10.40;99.90
8888;DHT22;4480;52.370;9.748;2022-12-29T04:10:51;10.50;99.90
8888;DHT22;4480;52.370;9.748;2022-12-29T04:13:17;10.50;99.90
8888;DHT22;4480;52.370;9.748;2022-12-29T04:15:44;10.60;99.90
8888;DHT22;4480;52.370;9.748;2022-12-29T04:18:12;10.60;99.90
8888;DHT22;4480;52.370;9.748;2022-12-29T04:20:39;10.70;99.90
8888;DHT22;4480;52.370;9.748;2022-12-29T04:23:36;10.70;99.90
8888;DHT22;4480;52.370;9.748;2022-12-29T04:26:06;10.80;99.90
8888;DHT22;4480;52.370;9.748;2022-12-29T04:28:34;10.80;99.90
8888;DHT22;4480;52.370;9.748;2022-12-29T04:31:01;10.80;99.90
8888;DHT22;4480;52.370;9.748;2022-12-29T04:33:28;10.90;99.90
8888;DHT22;4480;52.370;9.748;2022-12-29T04:35:55;11.00;99.90
8888;DHT22;4480;52.370;9.748;2022-12-29T04:38:23;11.00;99.90
8888;DHT22;4480;52.370;9.748;2022-12-29T04:40:50;11.00;99.90
8888;DHT22;4480;52.370;9.748;2022-12-29T04:43:18;11.10;99.90
8888;DHT22;4480;52.370;9.748;2022-12-29T04:45:47;11.10;99.90
8888;DHT22;4480;52.370;9.748;2022-12-29T04:48:14;11.20;99.90
8888;DHT22;4480;52.370;9.748;2022-12-29T04:50:42;11.20;99.90
8888;DHT22;4480;52.370;9.748;2022-12-29T04:53:09;11.20;99.90
8888;DHT22;4480;52.370;9.748;2022-12-29T04:55:36;11.20;99.90
8888;DHT22;4480;52.370;9.748;2022-12-29T04:58:02;11.20;99.90
8888;DHT22;4480;52.370;9.748;2022-12-29T05:00:31;11.20;99.90
8888;DHT22;4480;52.370;9.748;2022-12-29T05:02:57;11.20;99.90
8888;DHT22;4480;52.370;9.748;2022-12-29T05:05:24;11.20;99.90
8888;DHT22;4480;52.370;9.748;2022-12-29T05:07:51;11.20;99.90
8888;DHT22;4480;52.370;9.748;2022-12-29T05:10:18;11.20;99.90
8888;DHT22;4480;52.370;9.748;2022-12-29T05:12:44;11.20;99.90
8888;DHT22;4480;52.370;9.748;2022-12-29T05:15:12;11.20;99.90
8888;DHT22;4480;52.370;9.748;2022-12-29T05:17:41;11.20;99.90
8888;DHT22;4480;52.370;9.748;2022-12-29T05:20:08;11.20;99.90
8888;DHT22;4480;52.370;9.748;2022-12-29T05:22:35;11.20;99.90
8888;DHT22;4480;52.370;9.748;2022-12-29T05:25:02;11.20;99.90
8888;DHT22;4480;52.370;9.748;2022-12-29T05:27:29;11.20;99.90
8888;DHT22;4480;52.370;9.748;2022-12-29T05:29:56;11.20;99.90
8888;DHT22;4480;52.370;9.748;2022-12-29T05:32:23;11.30;99.90
8888;DHT22;4480;52.370;9.748;2022-12-29T05:34:51;11.20;99.90
8888;DHT22;4480;52.370;9.748;2022-12-29T05:37:18;11.20;99.90
8888;DHT22;4480;52.370;9.748;2022-12-29T05:39:45;11.20;99.90
8888;DHT22;4480;52.370;9.748;2022-12-29T05:42:11;11.20;99.90
8888;DHT22;4480;52.370;9.748;2022-12-29T05:44:38;11.30;99.90
8888;DHT22;4480;52.370;9.748;2022-12-29T05:47:05;11.30;99.90
8888;DHT22;4480;52.370;9.748;2022-12-29T05:49:32;11.30;99.90
8888;DHT22;4480;52.370;9.748;2022-12-29T05:52:00;11.20;99.90
8888;DHT22;4480;52.370;9.748;2022-12-29T05:54:26;11.20;99.90
8888;DHT22;4480;52.370;9.748;2022-12-29T05:56:53;11.10;99.90
8888;DHT22;4480;52.370;9.748;2022-12-29T05:59:20;11.10;99.90
8888;DHT22;4480;52.370;9.748;2022-12-29T06:01:47;11.00;99.90
8888;DHT22;4480;52.370;9.748;2022-12-29T06:04:14;11.00;99.90
8888;DHT22;4480;52.370;9.748;2022-12-29T06:06:41;10.90;99.90
8888;DHT22;4480;52.370;9.748;2022-12-29T06:09:10;10.90;99.90
8888;DHT22;4480;52.370;9.748;2022-12-29T06:11:37;10.90;99.90
8888;DHT22;4480;52.370;9.748;2022-12-29T06:14:04;10.90;99.90
8888;DHT22;4480;52.370;9.748;2022-12-29T06:16:31;10.80;99.90
8888;DHT22;4480;52.370;9.748;2022-12-29T06:18:57;10.80;99.90
8888;DHT22;4480;52.370;9.748;2022-12-29T06:21:24;10.80;99.90
8888;DHT22;4480;52.370;9.748;2022-12-29T06:23:51;10.80;99.90
8888;DHT22;4480;52.370;9.748;2022-12-29T06:26:19;10.70;99.90
8888;DHT22;4480;52.370;9.748;2022-12-29T06:28:46;10.70;99.90
8888;DHT22;4480;52.370;9.748;2022-12-29T06:31:12;10.60;99.90
8888;DHT22;4480;52.370;9.748;2022-12-29T06:33:39;10.60;99.90
8888;DHT22;4480;52.370;9.748;2022-12-29T06:36:06;10.60;99.90
8888;DHT22;4480;52.370;9.748;2022-12-29T06:38:33;10.60;99.90
8888;DHT22;4480;52.370;9.748;2022-12-29T06:41:01;10.60;99.90
8888;DHT22;4480;52.370;9.748;2022-12-29T06:43:29;10.50;99.90
8888;DHT22;4480;52.370;9.748;2022-12-29T06:45:57;10.50;99.90
8888;DHT22;4480;52.370;9.748;2022-12-29T06:48:24;10.50;99.90
8888;DHT22;4480;52.370;9.748;2022-12-29T06:50:51;10.50;99.90
8888;DHT22;4480;52.370;9.748;2022-12-29T06:53:17;10.40;99.90
8888;DHT22;4480;52.370;9.748;2022-12-29T06:55:44;10.40;99.90
8888;DHT22;4480;52.370;9.748;2022-12-29T06:58:11;10.50;99.90
8888;DHT22;4480;52.370;9.748;2022-12-29T07:00:39;10.50;99.90
8888;DHT22;4480;52.370;9.748;2022-12-29T07:03:06;10.50;99.90
8888;DHT22;4480;52.370;9.748;2022-12-29T07:05:33;10.60;99.90
8888;DHT22;4480;52.370;9.748;2022-12-29T07:07:59;10.60;99.90
8888;DHT22;4480;52.370;9.748;2022-12-29T07:10:27;10.70;99.90
8888;DHT22;4480;52.370;9.748;2022-12-29T07:12:53;10.80;99.90
8888;DHT22;4480;52.370;9.748;2022-12-29T07:15:20;10.90;99.90
8888;DHT22;4480;52.370;9.748;2022-12-29T07:17:48;10.90;99.90
8888;DHT22;4480;52.370;9.748;2022-12-29T07:20:16;10.90;99.90
8888;DHT22;4480;52.370;9.748;2022-12-29T07:22:42;11.00;99.90
8888;DHT22;4480;52.370;9.748;2022-12-29T07:25:09;11.10;99.90
8888;DHT22;4480;52.370;9.748;2022-12-29T07:27:36;11.00;99.90
8888;DHT22;4480;52.370;9.748;2022-12-29T07:30:03;10.80;99.90
8888;DHT22;4480;52.370;9.748;2022-12-29T07:32:32;10.50;99.90
8888;DHT22;4480;52.370;9.748;2022-12-29T07:35:00;10.00;99.90
8888;DHT22;4480;52.370;9.748;2022-12-29T07:37:27;9.70;99.90
8888;DHT22;4480;52.370;9.748;2022-12-29T07:39:54;9.50;99.90
8888;DHT22;4480;52.370;9.748;2022-12-29T07:42:21;9.30;99.90
8888;DHT22;4480;52.370;9.748;2022-12-29T07:44:48;9.30;99.90
8888;DHT22;4480;52.370;9.748;2022-12-29T07:47:14;9.20;99.90
8888;DHT22;4480;52.370;9.748;2022-12-29T07:49:41;9.10;99.90
8888;DHT22;4480;52.370;9.748;2022-12-29T07:52:09;9.10;99.90
8888;DHT22;4480;52.370;9.748;2022-12-29T07:54:36;9.10;99.90
8888;DHT22;4480;52.370;9.748;2022-12-29T07:57:03;9.10;99.90
8888;DHT22;4480;52.370;9.748;2022-12-29T07:59:31;9.10;99.90
8888;DHT22;4480;52.370;9.748;2022-12-29T08:01:58;9.10;99.90
8888;DHT22;4480;52.370;9.748;2022-12-29T08:04:24;9.10;99.90
8888;DHT22;4480;52.370;9.748;2022-12-29T08:06:51;9.00;99.90
8888;DHT22;4480;52.370;9.748;2022-12-29T08:09:19;9.00;99.90
8888;DHT22;4480;52.370;9.748;2022-12-29T08:11:46;9.00;99.90
8888;DHT22;4480;52.370;9.748;2022-12-29T08:14:13;9.10;99.90
8888;DHT22;4480;52.370;9.748;2022-12-29T08:16:39;9.10;99.90
8888;DHT22;4480;52.370;9.748;2022-12-29T08:19:06;9.10;99.90
8888;DHT22;4480;52.370;9.748;2022-12-29T08:21:33;9.10;99.90
8888;DHT22;4480;52.370;9.748;2022-12-29T08:24:00;9.20;99.90
8888;DHT22;4480;52.370;9.748;2022-12-29T08:26:28;9.20;99.90
8888;DHT22;4480;52.370;9.748;2022-12-29T08:28:55;9.20;99.90
8888;DHT22;4480;52.370;9.748;2022-12-29T08:31:22;9.20;99.90
8888;DHT22;4480;52.370;9.748;2022-12-29T08:33:49;9.20;99.90
8888;DHT22;4480;52.370;9.748;2022-12-29T08:36:16;9.30;99.90
8888;DHT22;4480;52.370;9.748;2022-12-29T08:38:43;9.30;99.90
8888;DHT22;4480;52.370;9.748;2022-12-29T08:41:10;9.30;99.90
8888;DHT22;4480;52.370;9.748;2022-12-29T08:43:38;9.30;99.90
8888;DHT22;4480;52.370;9.748;2022-12-29T08:46:05;9.40;99.90
8888;DHT22;4480;52.370;9.748;2022-12-29T08:48:31;9.40;99.90
8888;DHT22;4480;52.370;9.748;2022-12-29T08:50:58;9.50;99.90
8888;DHT22;4480;52.370;9.748;2022-12-29T08:53:25;9.60;99.90
8888;DHT22;4480;52.370;9.748;2022-12-29T08:55:56;9.70;99.90
8888;DHT22;4480;52.370;9.748;2022-12-29T08:58:23;9.70;99.90
8888;DHT22;4480;52.370;9.748;2022-12-29T09:00:53;9.70;99.90
8888;DHT22;4480;52.370;9.748;2022-12-29T09:03:20;9.70;99.90
8888;DHT22;4480;52.370;9.748;2022-12-29T09:05:48;9.60;99.90
8888;DHT22;4480;52.370;9.748;2022-12-29T09:08:15;9.60;99.90
8888;DHT22;4480;52.370;9.748;2022-12-29T09:10:42;9.60;99.90
8888;DHT22;4480;52.370;9.748;2022-12-29T09:13:09;9.50;99.90
8888;DHT22;4480;52.370;9.748;2022-12-29T09:15:37;9.50;99.90
8888;DHT22;4480;52.370;9.748;2022-12-29T09:18:08;9.50;99.90
8888;DHT22;4480;52.370;9.748;2022-12-29T09:20:38;9.50;99.90
8888;DHT22;4480;52.370;9.748;2022-12-29T09:23:05;9.50;99.90
8888;DHT22;4480;52.370;9.748;2022-12-29T09:25:33;9.50;99.90
8888;DHT22;4480;52.370;9.748;2022-12-29T09:28:00;9.50;99.90
8888;DHT22;4480;52.370;9.748;2022-12-29T09:30:31;9.50;99.90
8888;DHT22;4480;52.370;9.748;2022-12-29T09:32:58;9.50;99.90
8888;DHT22;4480;52.370;9.748;2022-12-29T09:35:27;9.60;99.90
8888;DHT22;4480;52.370;9.748;2022-12-29T09:37:54;9.70;99.90
8888;DHT22;4480;52.370;9.748;2022-12-29T09:40:27;9.80;99.90
8888;DHT22;4480;52.370;9.748;2022-12-29T09:43:17;9.80;99.90
8888;DHT22;4480;52.370;9.748;2022-12-29T09:45:55;9.90;99.90
8888;DHT22;4480;52.370;9.748;2022-12-29T09:48:29;10.00;99.90
8888;DHT22;4480;52.370;9.748;2022-12-29T09:51:02;10.10;99.90
8888;DHT22;4480;52.370;9.748;2022-12-29T09:53:31;10.20;99.90
8888;DHT22;4480;52.370;9.748;2022-12-29T09:56:03;10.20;99.90
8888;DHT22;4480;52.370;9.748;2022-12-29T09:58:36;10.20;99.90
8888;DHT22;4480;52.370;9.748;2022-12-29T10:01:06;10.20;99.90
8888;DHT22;4480;52.370;9.748;2022-12-29T10:03:44;10.20;99.90
8888;DHT22;4480;52.370;9.748;2022-12-29T10:06:17;10.20;99.90
8888;DHT22;4480;52.370;9.748;2022-12-29T10:08:51;10.20;99.90
8888;DHT22;4480;52.370;9.748;2022-12-29T10:11:30;10.30;99.90
8888;DHT22;4480;52.370;9.748;2022-12-29T10:14:11;10.30;99.90
8888;DHT22;4480;52.370;9.748;2022-12-29T10:16:46;10.20;99.90
8888;DHT22;4480;52.370;9.748;2022-12-29T10:19:37;10.20;99.90
8888;DHT22;4480;52.370;9.748;2022-12-29T10:22:14;10.20;99.90
8888;DHT22;4480;52.370;9.748;2022-12-29T10:24:45;10.20;99.90
8888;DHT22;4480;52.370;9.748;2022-12-29T10:27:15;10.10;99.90
8888;DHT22;4480;52.370;9.748;2022-12-29T10:29:46;10.20;99.90
8888;DHT22;4480;52.370;9.748;2022-12-29T10:32:22;10.20;99.90
8888;DHT22;4480;52.370;9.748;2022-12-29T10:34:55;10.20;99.90
8888;DHT22;4480;52.370;9.748;2022-12-29T10:37:31;10.30;99.90
8888;DHT22;4480;52.370;9.748;2022-12-29T10:39:59;10.40;99.90
8888;DHT22;4480;52.370;9.748;2022-12-29T10:42:34;10.50;99.90
8888;DHT22;4480;52.370;9.748;2022-12-29T10:45:04;10.50;99.90
8888;DHT22;4480;52.370;9.748;2022-12-29T10:47:35;10.60;99.90
8888;DHT22;4480;52.370;9.748;2022-12-29T10:50:05;10.60;99.90
8888;DHT22;4480;52.370;9.748;2022-12-29T10:52:35;10.70;99.90
8888;DHT22;4480;52.370;9.748;2022-12-29T10:55:08;10.70;99.90
8888;DHT22;4480;52.370;9.748;2022-12-29T10:57:41;10.80;99.90
8888;DHT22;4480;52.370;9.748;2022-12-29T11:00:12;10.80;99.90
8888;DHT22;4480;52.370;9.748;2022-12-29T11:05:35;10.80;99.90
8888;DHT22;4480;52.370;9.748;2022-12-29T11:08:11;10.80;99.90
8888;DHT22;4480;52.370;9.748;2022-12-29T11:10:40;10.80;99.90
8888;DHT22;4480;52.370;9.748;2022-12-29T11:13:13;10.70;99.90
8888;DHT22;4480;52.370;9.748;2022-12-29T11:15:41;10.80;99.90
8888;DHT22;4480;52.370;9.748;2022-12-29T11:18:20;10.80;99.90
8888;DHT22;4480;52.370;9.748;2022-12-29T11:20:48;10.90;99.90
8888;DHT22;4480;52.370;9.748;2022-12-29T11:23:35;10.90;99.90
8888;DHT22;4480;52.370;9.748;2022-12-29T11:26:07;10.90;99.90
8888;DHT22;4480;52.370;9.748;2022-12-29T11:28:35;10.90;99.90
8888;DHT22;4480;52.370;9.748;2022-12-29T11:31:04;10.90;99.90
8888;DHT22;4480;52.370;9.748;2022-12-29T11:33:33;10.90;99.90
8888;DHT22;4480;52.370;9.748;2022-12-29T11:36:04;10.90;99.90
8888;DHT22;4480;52.370;9.748;2022-12-29T11:38:39;10.90;99.90
8888;DHT22;4480;52.370;9.748;2022-12-29T11:41:11;10.90;99.90
8888;DHT22;4480;52.370;9.748;2022-12-29T11:43:41;10.90;99.90
8888;DHT22;4480;52.370;9.748;2022-12-29T11:46:14;11.00;99.90
8888;DHT22;4480;52.370;9.748;2022-12-29T11:48:43;11.00;99.90
8888;DHT22;4480;52.370;9.748;2022-12-29T11:51:10;11.00;99.90
8888;DHT22;4480;52.370;9.748;2022-12-29T11:53:43;11.10;99.90
8888;DHT22;4480;52.370;9.748;2022-12-29T11:56:13;11.20;99.90
8888;DHT22;4480;52.370;9.748;2022-12-29T11:58:41;11.20;99.90
8888;DHT22;4480;52.370;9.748;2022-12-29T12:01:15;11.30;99.90
8888;DHT22;4480;52.370;9.748;2022-12-29T12:03:47;11.40;99.90
8888;DHT22;4480;52.370;9.748;2022-12-29T12:06:16;11.40;99.90
8888;DHT22;4480;52.370;9.748;2022-12-29T12:08:53;11.50;99.90
8888;DHT22;4480;52.370;9.748;2022-12-29T12:11:23;11.60;99.90
8888;DHT22;4480;52.370;9.748;2022-12-29T12:13:58;11.80;99.80
8888;DHT22;4480;52.370;9.748;2022-12-29T12:16:30;11.80;98.70
8888;DHT22;4480;52.370;9.748;2022-12-29T12:19:03;11.90;97.70
8888;DHT22;4480;52.370;9.748;2022-12-29T12:21:34;11.90;96.40
8888;DHT22;4480;52.370;9.748;2022-12-29T12:24:28;11.90;95.90
8888;DHT22;4480;52.370;9.748;2022-12-29T12:27:01;11.90;95.70
8888;DHT22;4480;52.370;9.748;2022-12-29T12:29:36;11.90;95.50
8888;DHT22;4480;52.370;9.748;2022-12-29T12:32:09;11.90;95.20
8888;DHT22;4480;52.370;9.748;2022-12-29T12:34:41;11.90;95.40
8888;DHT22;4480;52.370;9.748;2022-12-29T12:37:46;11.90;95.40
8888;DHT22;4480;52.370;9.748;2022-12-29T12:40:51;11.90;95.60
8888;DHT22;4480;52.370;9.748;2022-12-29T12:43:33;11.80;95.40
8888;DHT22;4480;52.370;9.748;2022-12-29T12:46:09;11.80;95.50
8888;DHT22;4480;52.370;9.748;2022-12-29T12:48:52;11.80;95.50
8888;DHT22;4480;52.370;9.748;2022-12-29T12:51:28;11.70;95.80
8888;DHT22;4480;52.370;9.748;2022-12-29T12:54:10;11.70;96.10
8888;DHT22;4480;52.370;9.748;2022-12-29T12:56:55;11.60;96.20
8888;DHT22;4480;52.370;9.748;2022-12-29T12:59:36;11.60;96.20
8888;DHT22;4480;52.370;9.748;2022-12-29T13:02:17;11.60;96.40
8888;DHT22;4480;52.370;9.748;2022-12-29T13:05:00;11.60;96.20
8888;DHT22;4480;52.370;9.748;2022-12-29T13:07:40;11.60;96.00
8888;DHT22;4480;52.370;9.748;2022-12-29T13:10:22;11.60;95.60
8888;DHT22;4480;52.370;9.748;2022-12-29T13:13:09;11.60;95.00
8888;DHT22;4480;52.370;9.748;2022-12-29T13:15:46;11.60;94.70
8888;DHT22;4480;52.370;9.748;2022-12-29T13:18:22;11.60;94.50
8888;DHT22;4480;52.370;9.748;2022-12-29T13:20:55;11.60;94.80
8888;DHT22;4480;52.370;9.748;2022-12-29T13:23:32;11.60;94.80
8888;DHT22;4480;52.370;9.748;2022-12-29T13:26:06;11.60;94.30
8888;DHT22;4480;52.370;9.748;2022-12-29T13:28:44;11.60;93.80
8888;DHT22;4480;52.370;9.748;2022-12-29T13:31:18;11.60;93.40
8888;DHT22;4480;52.370;9.748;2022-12-29T13:33:52;11.60;92.70
8888;DHT22;4480;52.370;9.748;2022-12-29T13:36:26;11.60;92.50
8888;DHT22;4480;52.370;9.748;2022-12-29T13:39:01;11.60;92.30
8888;DHT22;4480;52.370;9.748;2022-12-29T13:41:32;11.70;92.00
8888;DHT22;4480;52.370;9.748;2022-12-29T13:44:03;11.70;92.00
8888;DHT22;4480;52.370;9.748;2022-12-29T13:46:34;11.70;91.80
8888;DHT22;4480;52.370;9.748;2022-12-29T13:49:05;11.70;91.40
8888;DHT22;4480;52.370;9.748;2022-12-29T13:51:34;11.70;91.20
8888;DHT22;4480;52.370;9.748;2022-12-29T13:54:10;11.70;91.00
8888;DHT22;4480;52.370;9.748;2022-12-29T13:56:41;11.60;91.20
8888;DHT22;4480;52.370;9.748;2022-12-29T13:59:15;11.60;91.20
8888;DHT22;4480;52.370;9.748;2022-12-29T14:01:49;11.60;91.40
8888;DHT22;4480;52.370;9.748;2022-12-29T14:04:22;11.60;91.60
8888;DHT22;4480;52.370;9.748;2022-12-29T14:06:59;11.60;91.70
8888;DHT22;4480;52.370;9.748;2022-12-29T14:09:42;11.60;91.70
8888;DHT22;4480;52.370;9.748;2022-12-29T14:12:31;11.60;91.60
8888;DHT22;4480;52.370;9.748;2022-12-29T14:15:19;11.60;91.80
8888;DHT22;4480;52.370;9.748;2022-12-29T14:20:53;11.50;91.50
8888;DHT22;4480;52.370;9.748;2022-12-29T14:23:34;11.50;91.60
8888;DHT22;4480;52.370;9.748;2022-12-29T14:26:11;11.50;91.60
8888;DHT22;4480;52.370;9.748;2022-12-29T14:28:40;11.40;91.70
8888;DHT22;4480;52.370;9.748;2022-12-29T14:31:34;11.40;91.70
8888;DHT22;4480;52.370;9.748;2022-12-29T14:34:30;11.40;91.90
8888;DHT22;4480;52.370;9.748;2022-12-29T14:37:21;11.40;92.30
8888;DHT22;4480;52.370;9.748;2022-12-29T14:39:48;11.40;92.30
8888;DHT22;4480;52.370;9.748;2022-12-29T14:42:19;11.40;92.20
8888;DHT22;4480;52.370;9.748;2022-12-29T14:44:49;11.40;92.10
8888;DHT22;4480;52.370;9.748;2022-12-29T14:47:21;11.40;92.30
8888;DHT22;4480;52.370;9.748;2022-12-29T14:49:50;11.30;92.50
8888;DHT22;4480;52.370;9.748;2022-12-29T14:52:19;11.30;92.60
8888;DHT22;4480;52.370;9.748;2022-12-29T14:54:54;11.30;93.10
8888;DHT22;4480;52.370;9.748;2022-12-29T14:57:35;11.30;93.10
8888;DHT22;4480;52.370;9.748;2022-12-29T15:00:22;11.20;93.20
8888;DHT22;4480;52.370;9.748;2022-12-29T15:03:01;11.20;93.30
8888;DHT22;4480;52.370;9.748;2022-12-29T15:05:33;11.20;93.10
8888;DHT22;4480;52.370;9.748;2022-12-29T15:08:03;11.20;93.20
8888;DHT22;4480;52.370;9.748;2022-12-29T15:10:38;11.20;93.10
8888;DHT22;4480;52.370;9.748;2022-12-29T15:13:15;11.20;93.00
8888;DHT22;4480;52.370;9.748;2022-12-29T15:15:41;11.10;92.80
8888;DHT22;4480;52.370;9.748;2022-12-29T15:18:27;11.10;92.70
8888;DHT22;4480;52.370;9.748;2022-12-29T15:20:57;11.10;92.70
8888;DHT22;4480;52.370;9.748;2022-12-29T15:23:25;11.10;92.70
8888;DHT22;4480;52.370;9.748;2022-12-29T15:25:55;11.10;92.90
8888;DHT22;4480;52.370;9.748;2022-12-29T15:28:22;11.00;93.10
8888;DHT22;4480;52.370;9.748;2022-12-29T15:30:51;11.00;93.30
8888;DHT22;4480;52.370;9.748;2022-12-29T15:33:18;11.00;93.60
8888;DHT22;4480;52.370;9.748;2022-12-29T15:35:50;11.00;93.80
8888;DHT22;4480;52.370;9.748;2022-12-29T15:38:21;10.90;93.90
8888;DHT22;4480;52.370;9.748;2022-12-29T15:40:52;10.90;93.70
8888;DHT22;4480;52.370;9.748;2022-12-29T15:43:38;10.80;93.70
8888;DHT22;4480;52.370;9.748;2022-12-29T15:46:11;10.80;93.80
8888;DHT22;4480;52.370;9.748;2022-12-29T15:48:38;10.70;93.80
8888;DHT22;4480;52.370;9.748;2022-12-29T15:51:17;10.70;94.00
8888;DHT22;4480;52.370;9.748;2022-12-29T15:53:47;10.60;94.50
8888;DHT22;4480;52.370;9.748;2022-12-29T15:56:15;10.60;94.70
8888;DHT22;4480;52.370;9.748;2022-12-29T15:58:44;10.60;95.00
8888;DHT22;4480;52.370;9.748;2022-12-29T16:01:28;10.60;95.30
8888;DHT22;4480;52.370;9.748;2022-12-29T16:03:57;10.60;95.80
8888;DHT22;4480;52.370;9.748;2022-12-29T16:06:31;10.60;96.20
8888;DHT22;4480;52.370;9.748;2022-12-29T16:09:00;10.60;96.40
8888;DHT22;4480;52.370;9.748;2022-12-29T16:11:32;10.60;96.80
8888;DHT22;4480;52.370;9.748;2022-12-29T16:14:01;10.60;97.30
8888;DHT22;4480;52.370;9.748;2022-12-29T16:16:31;10.50;97.80
8888;DHT22;4480;52.370;9.748;2022-12-29T16:19:01;10.50;98.30
8888;DHT22;4480;52.370;9.748;2022-12-29T16:21:34;10.50;98.90
8888;DHT22;4480;52.370;9.748;2022-12-29T16:24:04;10.40;99.60
8888;DHT22;4480;52.370;9.748;2022-12-29T16:26:32;10.40;99.90
8888;DHT22;4480;52.370;9.748;2022-12-29T16:29:01;10.30;99.90
8888;DHT22;4480;52.370;9.748;2022-12-29T16:31:33;10.30;99.90
8888;DHT22;4480;52.370;9.748;2022-12-29T16:34:12;10.30;99.90
8888;DHT22;4480;52.370;9.748;2022-12-29T16:36:53;10.30;99.90
8888;DHT22;4480;52.370;9.748;2022-12-29T16:39:25;10.20;99.90
8888;DHT22;4480;52.370;9.748;2022-12-29T16:41:53;10.20;99.90
8888;DHT22;4480;52.370;9.748;2022-12-29T16:44:22;10.20;99.90
8888;DHT22;4480;52.370;9.748;2022-12-29T16:47:00;10.20;99.90
8888;DHT22;4480;52.370;9.748;2022-12-29T16:49:28;10.10;99.90
8888;DHT22;4480;52.370;9.748;2022-12-29T16:51:57;10.10;99.90
8888;DHT22;4480;52.370;9.748;2022-12-29T16:54:26;10.10;99.90